createdAt,value
2023-05-09T00:00:17.929Z,8.40
2023-05-09T00:03:05.784Z,8.73
2023-05-09T00:05:52.632Z,8.20
2023-05-09T00:08:40.576Z,8.20
2023-05-09T00:11:27.445Z,9.10
2023-05-09T00:14:15.701Z,9.57
2023-05-09T00:17:02.305Z,8.30
2023-05-09T00:19:48.705Z,8.63
2023-05-09T00:22:35.022Z,8.80
2023-05-09T00:25:21.629Z,8.70
2023-05-09T00:28:08.093Z,8.60
2023-05-09T00:30:55.908Z,9.13
2023-05-09T00:33:42.153Z,8.60
2023-05-09T00:36:28.685Z,9.57
2023-05-09T00:39:15.121Z,9.67
2023-05-09T00:42:01.665Z,9.53
2023-05-09T00:44:47.950Z,8.97
2023-05-09T00:47:36.008Z,9.77
2023-05-09T00:50:22.339Z,8.87
2023-05-09T00:53:12.238Z,8.40
2023-05-09T00:55:58.981Z,8.40
2023-05-09T00:58:45.875Z,8.50
2023-05-09T01:01:32.650Z,9.33
2023-05-09T01:04:21.106Z,9.30
2023-05-09T01:07:13.404Z,9.57
2023-05-09T01:10:07.534Z,9.23
2023-05-09T01:13:00.697Z,8.67
2023-05-09T01:15:54.400Z,8.67
2023-05-09T01:18:46.984Z,8.77
2023-05-09T01:21:36.704Z,9.50
2023-05-09T01:24:52.144Z,9.10
2023-05-09T01:27:48.044Z,9.70
2023-05-09T01:30:37.425Z,8.23
2023-05-09T01:33:27.307Z,9.03
2023-05-09T01:36:18.107Z,8.97
2023-05-09T01:39:05.538Z,9.07
2023-05-09T01:41:54.264Z,8.57
2023-05-09T01:44:43.691Z,8.47
2023-05-09T01:47:31.973Z,9.47
2023-05-09T01:50:20.786Z,8.97
2023-05-09T01:53:09.026Z,8.63
2023-05-09T01:55:55.849Z,8.80
2023-05-09T01:58:43.398Z,9.33
2023-05-09T02:01:31.263Z,9.30
2023-05-09T02:04:19.892Z,8.80
2023-05-09T02:07:07.222Z,8.97
2023-05-09T02:09:56.467Z,8.60
2023-05-09T02:12:43.340Z,8.87
2023-05-09T02:15:31.460Z,8.83
2023-05-09T02:18:17.996Z,8.90
2023-05-09T02:21:07.971Z,9.13
2023-05-09T02:23:54.539Z,8.63
2023-05-09T02:26:42.321Z,9.00
2023-05-09T02:29:39.827Z,8.23
2023-05-09T02:32:29.852Z,8.93
2023-05-09T02:35:18.302Z,8.77
2023-05-09T02:38:07.648Z,8.63
2023-05-09T02:40:54.593Z,9.17
2023-05-09T02:43:41.390Z,8.70
2023-05-09T02:46:27.951Z,8.27
2023-05-09T02:49:26.785Z,8.13
2023-05-09T02:52:18.200Z,8.33
2023-05-09T02:55:07.322Z,9.20
2023-05-09T02:58:02.159Z,8.60
2023-05-09T03:00:59.171Z,8.77
2023-05-09T03:03:46.199Z,8.57
2023-05-09T03:06:32.705Z,9.47
2023-05-09T03:09:19.228Z,8.80
2023-05-09T03:12:07.472Z,9.27
2023-05-09T03:14:54.196Z,9.10
2023-05-09T03:17:40.658Z,8.33
2023-05-09T03:20:27.738Z,9.13
2023-05-09T03:23:14.061Z,8.67
2023-05-09T03:26:00.502Z,8.53
2023-05-09T03:28:49.636Z,9.37
2023-05-09T03:31:36.426Z,8.83
2023-05-09T03:34:22.815Z,8.70
2023-05-09T03:37:11.946Z,9.03
2023-05-09T03:39:58.334Z,9.20
2023-05-09T03:42:44.650Z,7.80
2023-05-09T03:45:32.567Z,9.07
2023-05-09T03:48:19.224Z,8.40
2023-05-09T03:51:05.576Z,8.43
2023-05-09T03:53:52.075Z,9.80
2023-05-09T03:56:38.474Z,8.33
2023-05-09T03:59:24.925Z,8.60
2023-05-09T04:02:13.083Z,8.40
2023-05-09T04:04:59.697Z,8.93
2023-05-09T04:07:46.107Z,8.27
2023-05-09T04:10:32.810Z,8.70
2023-05-09T04:13:23.591Z,8.77
2023-05-09T04:16:10.171Z,8.67
2023-05-09T04:18:57.966Z,8.33
2023-05-09T04:21:44.345Z,8.77
2023-05-09T04:24:31.045Z,7.83
2023-05-09T04:27:17.824Z,8.03
2023-05-09T04:30:05.088Z,7.70
2023-05-09T04:32:53.404Z,7.40
2023-05-09T04:35:41.218Z,7.93
2023-05-09T04:38:27.572Z,7.67
2023-05-09T04:41:13.908Z,7.50
2023-05-09T04:44:00.242Z,7.67
2023-05-09T04:46:47.242Z,7.00
2023-05-09T04:49:34.047Z,7.50
2023-05-09T04:52:22.077Z,7.03
2023-05-09T04:55:09.259Z,8.17
2023-05-09T04:57:55.741Z,7.47
2023-05-09T05:00:42.201Z,7.47
2023-05-09T05:03:29.045Z,7.40
2023-05-09T05:06:15.487Z,7.00
2023-05-09T05:09:03.597Z,6.43
2023-05-09T05:11:59.572Z,6.78
2023-05-09T05:14:48.700Z,6.15
2023-05-09T05:17:35.561Z,6.20
2023-05-09T05:20:22.129Z,6.53
2023-05-09T05:23:08.927Z,6.57
2023-05-09T05:25:56.922Z,6.78
2023-05-09T05:28:43.709Z,5.93
2023-05-09T05:31:30.135Z,6.43
2023-05-09T05:34:17.085Z,6.20
2023-05-09T05:37:03.580Z,5.75
2023-05-09T05:39:51.503Z,6.25
2023-05-09T05:42:39.464Z,6.07
2023-05-09T05:45:26.235Z,6.07
2023-05-09T05:48:12.605Z,5.82
2023-05-09T05:50:59.023Z,6.75
2023-05-09T05:53:45.428Z,6.07
2023-05-09T05:56:31.807Z,5.85
2023-05-09T05:59:19.638Z,6.05
2023-05-09T06:02:06.085Z,6.40
2023-05-09T06:04:54.585Z,6.05
2023-05-09T06:07:44.170Z,6.13
2023-05-09T06:10:30.679Z,6.18
2023-05-09T06:13:17.076Z,6.45
2023-05-09T06:16:18.513Z,5.50
2023-05-09T06:19:06.453Z,6.05
2023-05-09T06:21:52.799Z,5.53
2023-05-09T06:24:39.358Z,5.13
2023-05-09T06:27:25.991Z,5.80
2023-05-09T06:30:24.833Z,4.97
2023-05-09T06:33:13.863Z,5.25
2023-05-09T06:36:00.765Z,4.68
2023-05-09T06:38:47.240Z,4.70
2023-05-09T06:41:33.909Z,5.25
2023-05-09T06:44:20.283Z,5.10
2023-05-09T06:47:06.637Z,4.93
2023-05-09T06:49:54.646Z,4.75
2023-05-09T06:52:41.201Z,4.57
2023-05-09T06:55:28.119Z,4.30
2023-05-09T06:58:15.691Z,4.78
2023-05-09T07:01:02.279Z,3.97
2023-05-09T07:03:49.217Z,4.50
2023-05-09T07:06:36.935Z,5.03
2023-05-09T07:09:27.833Z,5.05
2023-05-09T07:12:14.228Z,5.00
2023-05-09T07:15:00.700Z,4.35
2023-05-09T07:17:47.098Z,4.85
2023-05-09T07:20:33.484Z,4.47
2023-05-09T07:23:21.311Z,3.95
2023-05-09T07:26:07.705Z,4.10
2023-05-09T07:28:54.029Z,4.90
2023-05-09T07:31:40.396Z,4.25
2023-05-09T07:34:26.867Z,4.50
2023-05-09T07:37:14.535Z,4.53
2023-05-09T07:40:05.809Z,5.22
2023-05-09T07:42:54.983Z,4.82
2023-05-09T07:45:41.849Z,4.85
2023-05-09T07:48:28.831Z,5.00
2023-05-09T07:51:15.583Z,4.47
2023-05-09T07:54:02.358Z,4.82
2023-05-09T07:56:51.515Z,4.50
2023-05-09T07:59:38.314Z,4.53
2023-05-09T08:02:24.786Z,4.78
2023-05-09T08:05:13.873Z,4.47
2023-05-09T08:08:01.078Z,5.30
2023-05-09T08:10:47.669Z,4.70
2023-05-09T08:13:35.460Z,4.20
2023-05-09T08:16:21.941Z,4.72
2023-05-09T08:19:08.250Z,4.13
2023-05-09T08:21:55.589Z,4.53
2023-05-09T08:24:41.949Z,4.32
2023-05-09T08:27:28.353Z,5.22
2023-05-09T08:30:16.734Z,4.72
2023-05-09T08:33:03.664Z,4.28
2023-05-09T08:35:52.186Z,4.85
2023-05-09T08:38:40.443Z,4.25
2023-05-09T08:41:28.175Z,4.80
2023-05-09T08:44:15.580Z,4.38
2023-05-09T08:47:05.168Z,4.53
2023-05-09T08:49:52.516Z,4.63
2023-05-09T08:52:39.400Z,4.60
2023-05-09T08:55:27.584Z,4.28
2023-05-09T08:58:16.635Z,4.35
2023-05-09T09:01:06.379Z,4.50
2023-05-09T09:03:54.510Z,4.88
2023-05-09T09:06:41.487Z,4.45
2023-05-09T09:09:28.693Z,4.50
2023-05-09T09:12:17.426Z,5.18
2023-05-09T09:15:06.519Z,5.10
2023-05-09T09:17:56.517Z,4.30
2023-05-09T09:20:48.962Z,4.03
2023-05-09T09:23:35.895Z,4.82
2023-05-09T09:26:22.388Z,4.55
2023-05-09T09:29:09.092Z,4.40
2023-05-09T09:31:55.906Z,4.47
2023-05-09T09:34:42.673Z,4.53
2023-05-09T09:37:30.449Z,3.50
2023-05-09T09:40:18.074Z,4.32
2023-05-09T09:43:07.960Z,3.83
2023-05-09T09:45:54.823Z,4.13
2023-05-09T09:48:45.457Z,4.22
2023-05-09T09:51:35.681Z,3.95
2023-05-09T09:54:26.802Z,3.92
2023-05-09T09:57:13.117Z,3.80
2023-05-09T10:00:00.338Z,3.83
2023-05-09T10:02:51.810Z,3.75
2023-05-09T10:05:40.718Z,4.55
2023-05-09T10:08:27.359Z,3.88
2023-05-09T10:11:16.351Z,4.05
2023-05-09T10:14:02.644Z,4.03
2023-05-09T10:16:50.683Z,4.30
2023-05-09T10:19:39.071Z,4.35
2023-05-09T10:22:26.235Z,4.53
2023-05-09T10:25:18.926Z,4.13
2023-05-09T10:28:11.451Z,4.32
2023-05-09T10:31:02.036Z,4.32
2023-05-09T10:33:50.353Z,4.25
2023-05-09T10:36:37.843Z,4.03
2023-05-09T10:39:24.992Z,4.15
2023-05-09T10:42:13.394Z,4.40
2023-05-09T10:45:01.833Z,3.75
2023-05-09T10:47:49.853Z,4.22
2023-05-09T10:50:37.733Z,4.15
2023-05-09T10:53:25.005Z,4.00
2023-05-09T10:56:24.098Z,3.78
2023-05-09T10:59:36.189Z,3.90
2023-05-09T11:02:29.181Z,4.35
2023-05-09T11:05:18.159Z,3.60
2023-05-09T11:08:29.458Z,3.90
2023-05-09T11:11:25.713Z,4.05
2023-05-09T11:14:30.597Z,4.20
2023-05-09T11:17:31.693Z,4.18
2023-05-09T11:20:18.003Z,4.30
2023-05-09T11:23:06.017Z,3.80
2023-05-09T11:25:55.642Z,3.58
2023-05-09T11:28:42.080Z,4.20
2023-05-09T11:31:28.558Z,4.28
2023-05-09T11:34:20.901Z,3.78
2023-05-09T11:37:11.825Z,3.67
2023-05-09T11:40:00.278Z,4.25
2023-05-09T11:42:48.585Z,4.15
2023-05-09T11:45:35.004Z,4.00
2023-05-09T11:48:24.052Z,4.32
2023-05-09T11:51:18.697Z,3.90
2023-05-09T11:54:05.773Z,4.05
2023-05-09T11:56:52.633Z,3.97
2023-05-09T11:59:39.887Z,4.00
2023-05-09T12:02:26.475Z,3.85
2023-05-09T12:05:15.324Z,4.10
2023-05-09T12:08:05.736Z,3.95
2023-05-09T12:10:52.466Z,3.97
2023-05-09T12:13:46.710Z,3.65
2023-05-09T12:16:33.253Z,4.20
2023-05-09T12:19:20.431Z,3.72
2023-05-09T12:22:07.087Z,3.28
2023-05-09T12:24:54.756Z,3.85
2023-05-09T12:27:42.642Z,3.90
2023-05-09T12:30:29.113Z,4.32
2023-05-09T12:33:16.097Z,4.05
2023-05-09T12:36:04.787Z,4.20
2023-05-09T12:38:55.109Z,3.28
2023-05-09T12:42:00.534Z,3.55
2023-05-09T12:44:51.932Z,3.78
2023-05-09T12:47:39.617Z,3.88
2023-05-09T12:50:36.297Z,3.65
2023-05-09T12:53:26.817Z,3.65
2023-05-09T12:56:15.035Z,3.28
2023-05-09T12:59:02.931Z,3.83
2023-05-09T13:01:54.946Z,3.65
2023-05-09T13:04:41.780Z,3.80
2023-05-09T13:07:28.326Z,3.20
2023-05-09T13:10:15.427Z,3.38
2023-05-09T13:13:02.453Z,3.65
2023-05-09T13:15:50.240Z,3.22
2023-05-09T13:18:36.619Z,3.90
2023-05-09T13:21:23.239Z,3.47
2023-05-09T13:24:10.699Z,3.30
2023-05-09T13:26:57.391Z,3.15
2023-05-09T13:29:43.715Z,3.70
2023-05-09T13:32:31.861Z,3.10
2023-05-09T13:35:18.436Z,3.80
2023-05-09T13:38:04.667Z,3.20
2023-05-09T13:40:51.481Z,3.72
2023-05-09T13:43:38.604Z,3.30
2023-05-09T13:46:25.000Z,3.50
2023-05-09T13:49:13.357Z,3.72
2023-05-09T13:51:59.634Z,2.90
2023-05-09T13:54:46.390Z,3.67
2023-05-09T13:57:33.055Z,3.20
2023-05-09T14:00:21.215Z,3.35
2023-05-09T14:03:07.917Z,3.53
2023-05-09T14:05:55.691Z,3.15
2023-05-09T14:08:42.347Z,3.22
2023-05-09T14:11:28.900Z,3.10
2023-05-09T14:14:15.235Z,3.10
2023-05-09T14:17:01.734Z,2.92
2023-05-09T14:19:48.417Z,2.92
2023-05-09T14:22:36.055Z,2.85
2023-05-09T14:25:22.597Z,3.22
2023-05-09T14:28:09.566Z,2.90
2023-05-09T14:30:57.259Z,3.03
2023-05-09T14:33:43.999Z,2.97
2023-05-09T14:36:30.417Z,2.90
2023-05-09T14:39:18.154Z,3.35
2023-05-09T14:42:05.769Z,3.00
2023-05-09T14:44:52.425Z,2.72
2023-05-09T14:47:38.889Z,2.72
2023-05-09T14:50:25.727Z,2.63
2023-05-09T14:53:12.592Z,2.70
2023-05-09T14:56:01.558Z,2.45
2023-05-09T14:58:49.434Z,2.67
2023-05-09T15:01:36.201Z,2.50
2023-05-09T15:04:23.675Z,2.83
2023-05-09T15:07:10.024Z,2.60
2023-05-09T15:09:56.315Z,3.13
2023-05-09T15:12:44.692Z,2.45
2023-05-09T15:15:31.799Z,2.25
2023-05-09T15:18:19.968Z,2.70
2023-05-09T15:21:06.928Z,2.40
2023-05-09T15:23:53.674Z,2.50
2023-05-09T15:26:40.128Z,3.00
2023-05-09T15:29:28.597Z,2.70
2023-05-09T15:32:14.989Z,2.38
2023-05-09T15:35:01.201Z,2.10
2023-05-09T15:37:47.484Z,2.67
2023-05-09T15:40:33.925Z,2.85
2023-05-09T15:43:20.356Z,2.53
2023-05-09T15:46:08.415Z,2.35
2023-05-09T15:48:56.086Z,2.70
2023-05-09T15:51:43.276Z,2.50
2023-05-09T15:54:31.598Z,2.50
2023-05-09T15:57:18.572Z,2.63
2023-05-09T16:00:05.681Z,2.30
2023-05-09T16:02:53.712Z,2.42
2023-05-09T16:05:40.836Z,2.58
2023-05-09T16:08:27.915Z,2.47
2023-05-09T16:11:14.499Z,2.65
2023-05-09T16:14:01.248Z,2.47
2023-05-09T16:16:49.989Z,2.40
2023-05-09T16:19:38.155Z,2.30
2023-05-09T16:22:24.606Z,2.30
2023-05-09T16:25:11.610Z,2.20
2023-05-09T16:27:58.295Z,2.40
2023-05-09T16:30:44.927Z,2.30
2023-05-09T16:33:31.406Z,2.10
2023-05-09T16:36:19.284Z,2.40
2023-05-09T16:39:06.110Z,2.40
2023-05-09T16:41:54.082Z,2.40
2023-05-09T16:44:40.491Z,2.95
2023-05-09T16:47:26.985Z,2.53
2023-05-09T16:50:13.637Z,2.30
2023-05-09T16:53:01.870Z,2.72
2023-05-09T16:55:48.882Z,2.58
2023-05-09T16:58:36.739Z,2.75
2023-05-09T17:01:23.198Z,2.90
2023-05-09T17:04:09.934Z,2.70
2023-05-09T17:06:56.587Z,2.97
2023-05-09T17:09:44.300Z,2.42
2023-05-09T17:12:31.129Z,2.78
2023-05-09T17:15:18.114Z,2.58
2023-05-09T17:18:04.673Z,2.92
2023-05-09T17:20:51.330Z,2.85
2023-05-09T17:23:37.868Z,3.30
2023-05-09T17:26:25.777Z,3.00
2023-05-09T17:29:12.321Z,2.80
2023-05-09T17:32:00.749Z,3.05
2023-05-09T17:34:47.833Z,3.33
2023-05-09T17:37:34.188Z,3.00
2023-05-09T17:40:20.661Z,3.10
2023-05-09T17:43:08.690Z,3.58
2023-05-09T17:45:55.433Z,3.30
2023-05-09T17:48:42.713Z,3.40
2023-05-09T17:51:29.456Z,3.13
2023-05-09T17:54:15.903Z,3.15
2023-05-09T17:57:02.415Z,3.08
2023-05-09T17:59:51.686Z,3.38
2023-05-09T18:02:38.275Z,3.22
2023-05-09T18:05:26.766Z,3.22
2023-05-09T18:08:13.561Z,3.03
2023-05-09T18:11:00.115Z,3.58
2023-05-09T18:13:46.429Z,3.33
2023-05-09T18:16:35.844Z,3.42
2023-05-09T18:19:22.329Z,3.63
2023-05-09T18:22:08.659Z,3.58
2023-05-09T18:24:55.265Z,3.30
2023-05-09T18:27:41.859Z,3.33
2023-05-09T18:30:28.451Z,3.50
2023-05-09T18:33:17.228Z,3.60
2023-05-09T18:36:04.008Z,3.70
2023-05-09T18:38:50.352Z,3.58
2023-05-09T18:41:36.754Z,3.70
2023-05-09T18:44:23.432Z,3.47
2023-05-09T18:47:10.000Z,3.22
2023-05-09T18:49:59.742Z,3.72
2023-05-09T18:52:48.197Z,4.20
2023-05-09T18:55:34.704Z,3.38
2023-05-09T18:58:21.573Z,3.50
2023-05-09T19:01:11.196Z,3.83
2023-05-09T19:03:57.651Z,3.80
2023-05-09T19:06:45.662Z,3.60
2023-05-09T19:09:32.160Z,3.97
2023-05-09T19:12:18.697Z,3.63
2023-05-09T19:15:05.692Z,4.28
2023-05-09T19:17:52.297Z,4.07
2023-05-09T19:20:39.015Z,4.20
2023-05-09T19:23:27.537Z,4.38
2023-05-09T19:26:14.966Z,3.85
2023-05-09T19:29:04.105Z,3.50
2023-05-09T19:31:50.893Z,4.45
2023-05-09T19:34:37.885Z,3.72
2023-05-09T19:37:27.308Z,3.67
2023-05-09T19:40:15.676Z,3.60
2023-05-09T19:43:02.510Z,4.00
2023-05-09T19:45:52.899Z,3.97
2023-05-09T19:48:39.460Z,3.38
2023-05-09T19:51:26.275Z,3.38
2023-05-09T19:54:14.337Z,4.03
2023-05-09T19:57:06.219Z,3.65
2023-05-09T19:59:54.590Z,3.75
2023-05-09T20:02:41.668Z,3.38
2023-05-09T20:05:28.620Z,4.50
2023-05-09T20:08:15.232Z,3.90
2023-05-09T20:11:02.099Z,4.20
2023-05-09T20:13:50.180Z,4.57
2023-05-09T20:16:36.712Z,4.22
2023-05-09T20:19:23.850Z,4.00
2023-05-09T20:22:10.708Z,3.92
2023-05-09T20:24:58.057Z,3.92
2023-05-09T20:27:44.926Z,3.80
2023-05-09T20:30:32.822Z,4.40
2023-05-09T20:33:19.332Z,4.55
2023-05-09T20:36:09.448Z,4.68
2023-05-09T20:38:57.278Z,4.55
2023-05-09T20:41:44.394Z,4.40
2023-05-09T20:44:30.994Z,4.28
2023-05-09T20:47:19.121Z,4.32
2023-05-09T20:50:06.369Z,4.47
2023-05-09T20:52:52.812Z,4.50
2023-05-09T20:55:39.397Z,4.55
2023-05-09T20:58:25.868Z,4.30
2023-05-09T21:01:12.187Z,4.30
2023-05-09T21:04:00.014Z,4.72
2023-05-09T21:06:46.394Z,4.30
2023-05-09T21:09:32.763Z,4.32
2023-05-09T21:12:19.306Z,4.35
2023-05-09T21:15:06.849Z,4.05
2023-05-09T21:17:53.510Z,4.43
2023-05-09T21:20:41.527Z,4.55
2023-05-09T21:23:27.925Z,4.43
2023-05-09T21:26:14.296Z,4.68
2023-05-09T21:29:00.861Z,4.37
2023-05-09T21:31:47.393Z,4.00
2023-05-09T21:34:33.820Z,4.15
2023-05-09T21:37:21.586Z,4.30
2023-05-09T21:40:09.696Z,4.13
2023-05-09T21:42:56.250Z,4.53
2023-05-09T21:45:42.526Z,4.47
2023-05-09T21:48:29.014Z,4.50
2023-05-09T21:51:15.275Z,4.20
2023-05-09T21:54:03.133Z,4.60
2023-05-09T21:56:49.557Z,4.13
2023-05-09T21:59:38.137Z,4.50
2023-05-09T22:02:24.689Z,3.97
2023-05-09T22:05:11.940Z,4.47
2023-05-09T22:07:59.345Z,4.13
2023-05-09T22:10:47.555Z,3.80
2023-05-09T22:13:35.787Z,4.07
2023-05-09T22:16:23.315Z,3.87
2023-05-09T22:19:09.695Z,4.17
2023-05-09T22:21:56.111Z,4.23
2023-05-09T22:24:43.722Z,3.90
2023-05-09T22:27:31.824Z,4.20
2023-05-09T22:30:18.466Z,4.07
2023-05-09T22:33:05.029Z,4.40
2023-05-09T22:35:51.796Z,4.50
2023-05-09T22:38:38.000Z,4.00
2023-05-09T22:41:25.015Z,4.10
2023-05-09T22:44:13.054Z,4.33
2023-05-09T22:46:59.787Z,4.43
2023-05-09T22:49:46.469Z,4.40
2023-05-09T22:52:32.819Z,4.47
2023-05-09T22:55:19.472Z,4.43
2023-05-09T22:58:06.704Z,4.57
2023-05-09T23:00:54.709Z,4.50
2023-05-09T23:03:40.936Z,3.90
2023-05-09T23:06:27.372Z,4.30
2023-05-09T23:09:14.051Z,4.07
2023-05-09T23:12:01.204Z,4.23
2023-05-09T23:14:47.857Z,4.20
2023-05-09T23:17:36.355Z,4.40
2023-05-09T23:20:23.100Z,4.47
2023-05-09T23:23:09.428Z,4.60
2023-05-09T23:25:55.760Z,4.43
2023-05-09T23:28:42.429Z,4.60
2023-05-09T23:31:28.948Z,4.60
2023-05-09T23:34:17.125Z,4.77
2023-05-09T23:37:04.379Z,6.03
2023-05-09T23:39:50.914Z,5.17
2023-05-09T23:42:37.431Z,5.17
2023-05-09T23:45:24.000Z,4.80
2023-05-09T23:48:10.365Z,4.60
2023-05-09T23:50:58.266Z,4.40
2023-05-09T23:53:44.945Z,4.93
2023-05-09T23:56:31.652Z,5.10
2023-05-09T23:59:18.168Z,4.33
